createdAt,value
2022-11-02T00:01:40.730Z,10.12
2022-11-02T00:04:09.283Z,10.19
2022-11-02T00:06:37.630Z,10.28
2022-11-02T00:09:05.945Z,10.38
2022-11-02T00:11:37.318Z,10.45
2022-11-02T00:14:05.469Z,10.54
2022-11-02T00:16:34.208Z,10.62
2022-11-02T00:19:04.891Z,10.69
2022-11-02T00:21:32.968Z,10.77
2022-11-02T00:24:01.905Z,10.81
2022-11-02T00:26:30.761Z,10.86
2022-11-02T00:29:01.226Z,10.89
2022-11-02T00:31:29.206Z,10.95
2022-11-02T00:33:57.435Z,10.97
2022-11-02T00:36:26.009Z,11.01
2022-11-02T00:38:53.992Z,11.04
2022-11-02T00:41:22.586Z,11.06
2022-11-02T00:43:50.583Z,11.10
2022-11-02T00:46:20.267Z,11.13
2022-11-02T00:48:48.219Z,11.16
2022-11-02T00:51:16.337Z,11.19
2022-11-02T00:53:44.924Z,11.22
2022-11-02T00:56:12.945Z,11.25
2022-11-02T00:58:40.918Z,11.30
2022-11-02T01:01:09.759Z,11.33
2022-11-02T01:03:39.379Z,11.36
2022-11-02T01:06:12.227Z,11.38
2022-11-02T01:08:40.885Z,11.40
2022-11-02T01:11:13.981Z,11.43
2022-11-02T01:13:43.238Z,11.44
2022-11-02T01:16:12.327Z,11.43
2022-11-02T01:18:44.084Z,11.46
2022-11-02T01:21:12.211Z,11.48
2022-11-02T01:23:40.334Z,11.50
2022-11-02T01:26:10.297Z,11.51
2022-11-02T01:28:39.357Z,11.53
2022-11-02T01:31:08.760Z,11.54
2022-11-02T01:33:37.180Z,11.56
2022-11-02T01:36:12.242Z,11.59
2022-11-02T01:38:40.948Z,11.58
2022-11-02T01:41:09.384Z,11.63
2022-11-02T01:43:38.429Z,11.65
2022-11-02T01:46:14.282Z,11.66
2022-11-02T01:48:45.484Z,11.69
2022-11-02T01:51:21.962Z,11.71
2022-11-02T01:53:52.192Z,11.72
2022-11-02T01:56:24.272Z,11.72
2022-11-02T01:58:58.519Z,11.73
2022-11-02T02:01:27.243Z,11.77
2022-11-02T02:03:57.570Z,11.78
2022-11-02T02:06:26.986Z,11.81
2022-11-02T02:08:59.392Z,11.84
2022-11-02T02:11:29.936Z,11.87
2022-11-02T02:14:00.789Z,11.89
2022-11-02T02:19:30.440Z,11.95
2022-11-02T02:22:17.235Z,11.97
2022-11-02T02:24:53.124Z,11.98
2022-11-02T02:27:25.176Z,12.00
2022-11-02T02:30:03.999Z,12.01
2022-11-02T02:32:40.733Z,12.05
2022-11-02T02:35:27.047Z,12.06
2022-11-02T02:37:58.521Z,12.08
2022-11-02T02:40:32.283Z,12.09
2022-11-02T02:43:07.495Z,12.12
2022-11-02T02:45:41.182Z,12.15
2022-11-02T02:48:14.956Z,12.18
2022-11-02T02:50:48.438Z,12.19
2022-11-02T02:53:23.913Z,12.23
2022-11-02T02:55:53.648Z,12.24
2022-11-02T02:58:27.420Z,12.25
2022-11-02T03:00:58.311Z,12.25
2022-11-02T03:03:29.334Z,12.26
2022-11-02T03:06:05.414Z,12.29
2022-11-02T03:08:37.430Z,12.31
2022-11-02T03:11:13.771Z,12.31
2022-11-02T03:13:54.336Z,12.32
2022-11-02T03:16:38.812Z,12.35
2022-11-02T03:19:18.972Z,12.35
2022-11-02T03:21:53.865Z,12.35
2022-11-02T03:24:28.728Z,12.37
2022-11-02T03:27:08.634Z,12.40
2022-11-02T03:29:44.246Z,12.40
2022-11-02T03:32:19.476Z,12.38
2022-11-02T03:34:50.359Z,12.36
2022-11-02T03:37:23.382Z,12.36
2022-11-02T03:39:54.974Z,12.33
2022-11-02T03:42:27.328Z,12.33
2022-11-02T03:44:59.983Z,12.34
2022-11-02T03:47:33.815Z,12.35
2022-11-02T03:50:03.297Z,12.34
2022-11-02T03:52:34.244Z,12.33
2022-11-02T03:55:08.460Z,12.33
2022-11-02T03:57:41.891Z,12.34
2022-11-02T04:00:12.708Z,12.35
2022-11-02T04:02:44.820Z,12.31
2022-11-02T04:05:13.146Z,12.26
2022-11-02T04:08:01.692Z,12.26
2022-11-02T04:10:29.753Z,12.26
2022-11-02T04:13:15.524Z,12.28
2022-11-02T04:15:43.546Z,12.31
2022-11-02T04:18:32.194Z,12.32
2022-11-02T04:21:00.151Z,12.32
2022-11-02T04:23:45.616Z,12.33
2022-11-02T04:26:15.323Z,12.31
2022-11-02T04:28:43.237Z,12.33
2022-11-02T04:31:13.162Z,12.31
2022-11-02T04:33:41.894Z,12.31
2022-11-02T04:36:10.366Z,12.30
2022-11-02T04:38:43.614Z,12.29
2022-11-02T04:41:42.299Z,12.27
2022-11-02T04:44:11.504Z,12.26
2022-11-02T04:46:40.596Z,12.25
2022-11-02T04:49:10.856Z,12.24
2022-11-02T04:51:41.718Z,12.24
2022-11-02T04:54:12.333Z,12.24
2022-11-02T04:56:40.301Z,12.22
2022-11-02T04:59:08.284Z,12.20
2022-11-02T05:01:36.406Z,12.19
2022-11-02T05:04:04.391Z,12.18
2022-11-02T05:06:33.790Z,12.11
2022-11-02T05:09:01.796Z,12.06
2022-11-02T05:11:30.096Z,12.01
2022-11-02T05:13:58.114Z,11.96
2022-11-02T05:16:26.071Z,11.93
2022-11-02T05:18:54.063Z,11.87
2022-11-02T05:21:22.650Z,11.84
2022-11-02T05:23:51.994Z,11.80
2022-11-02T05:26:22.696Z,11.75
2022-11-02T05:28:52.814Z,11.72
2022-11-02T05:31:20.832Z,11.71
2022-11-02T05:33:48.968Z,11.68
2022-11-02T05:36:17.027Z,11.68
2022-11-02T05:38:45.057Z,11.68
2022-11-02T05:41:14.521Z,11.69
2022-11-02T05:43:42.516Z,11.68
2022-11-02T05:46:10.522Z,11.66
2022-11-02T05:48:38.475Z,11.62
2022-11-02T05:51:06.825Z,11.60
2022-11-02T05:53:38.352Z,11.55
2022-11-02T05:56:08.866Z,11.50
2022-11-02T05:58:38.421Z,11.45
2022-11-02T06:01:09.936Z,11.39
2022-11-02T06:03:38.382Z,11.31
2022-11-02T06:06:08.306Z,11.23
2022-11-02T06:08:37.912Z,11.16
2022-11-02T06:11:08.977Z,11.10
2022-11-02T06:13:38.647Z,11.04
2022-11-02T06:16:09.746Z,10.99
2022-11-02T06:18:37.911Z,10.93
2022-11-02T06:21:07.407Z,10.90
2022-11-02T06:23:36.256Z,10.86
2022-11-02T06:26:05.923Z,10.83
2022-11-02T06:28:33.979Z,10.80
2022-11-02T06:31:06.370Z,10.79
2022-11-02T06:33:34.557Z,10.78
2022-11-02T06:36:02.618Z,10.77
2022-11-02T06:38:30.652Z,10.77
2022-11-02T06:41:02.190Z,10.76
2022-11-02T06:43:30.277Z,10.74
2022-11-02T06:45:59.268Z,10.76
2022-11-02T06:48:34.607Z,10.75
2022-11-02T06:51:04.493Z,10.76
2022-11-02T06:53:32.652Z,10.76
2022-11-02T06:56:01.503Z,10.79
2022-11-02T06:58:29.582Z,10.79
2022-11-02T07:01:01.969Z,10.80
2022-11-02T07:03:32.565Z,10.80
2022-11-02T07:06:01.206Z,10.83
2022-11-02T07:08:29.959Z,10.84
2022-11-02T07:10:58.188Z,10.90
2022-11-02T07:13:26.494Z,10.94
2022-11-02T07:15:56.016Z,10.97
2022-11-02T07:18:24.438Z,11.02
2022-11-02T07:20:54.864Z,11.05
2022-11-02T07:23:24.230Z,11.08
2022-11-02T07:25:54.192Z,11.10
2022-11-02T07:28:22.529Z,11.12
2022-11-02T07:30:52.766Z,11.17
2022-11-02T07:33:20.727Z,11.21
2022-11-02T07:35:49.782Z,11.29
2022-11-02T07:38:19.190Z,11.34
2022-11-02T07:40:50.555Z,11.40
2022-11-02T07:43:18.722Z,11.39
2022-11-02T07:45:48.147Z,11.40
2022-11-02T07:48:16.319Z,11.40
2022-11-02T07:50:44.328Z,11.39
2022-11-02T07:53:12.571Z,11.39
2022-11-02T07:55:41.953Z,11.37
2022-11-02T07:58:13.726Z,11.36
2022-11-02T08:00:42.488Z,11.40
2022-11-02T08:03:12.193Z,11.48
2022-11-02T08:05:43.119Z,11.55
2022-11-02T08:08:14.164Z,11.62
2022-11-02T08:10:44.791Z,11.70
2022-11-02T08:13:14.762Z,11.78
2022-11-02T08:15:43.040Z,11.84
2022-11-02T08:18:14.949Z,11.93
2022-11-02T08:20:56.495Z,12.00
2022-11-02T08:23:25.077Z,12.07
2022-11-02T08:25:57.855Z,12.12
2022-11-02T08:28:28.316Z,12.21
2022-11-02T08:30:56.322Z,12.26
2022-11-02T08:33:24.242Z,12.35
2022-11-02T08:36:02.723Z,12.39
2022-11-02T08:38:31.041Z,12.43
2022-11-02T08:41:00.581Z,12.51
2022-11-02T08:43:29.502Z,12.54
2022-11-02T08:46:15.977Z,12.56
2022-11-02T08:48:44.330Z,12.65
2022-11-02T08:51:12.368Z,12.68
2022-11-02T08:53:40.685Z,12.69
2022-11-02T08:56:10.334Z,12.73
2022-11-02T08:58:38.291Z,12.78
2022-11-02T09:01:06.303Z,12.83
2022-11-02T09:03:34.278Z,12.88
2022-11-02T09:06:03.939Z,12.92
2022-11-02T09:08:33.303Z,13.02
2022-11-02T09:11:04.281Z,13.09
2022-11-02T09:13:33.670Z,13.17
2022-11-02T09:16:02.973Z,13.20
2022-11-02T09:18:31.476Z,13.24
2022-11-02T09:21:02.799Z,13.28
2022-11-02T09:23:41.015Z,13.30
2022-11-02T09:26:09.049Z,13.35
2022-11-02T09:28:38.551Z,13.38
2022-11-02T09:31:10.568Z,13.43
2022-11-02T09:33:40.005Z,13.49
2022-11-02T09:36:09.123Z,13.50
2022-11-02T09:38:49.253Z,13.56
2022-11-02T09:41:23.550Z,13.64
2022-11-02T09:44:04.340Z,13.72
2022-11-02T09:46:38.125Z,13.76
2022-11-02T09:49:13.617Z,13.81
2022-11-02T09:51:46.097Z,13.84
2022-11-02T09:54:20.434Z,13.87
2022-11-02T09:56:49.304Z,13.94
2022-11-02T09:59:21.066Z,13.97
2022-11-02T10:02:01.192Z,14.02
2022-11-02T10:04:55.999Z,14.06
2022-11-02T10:07:37.281Z,14.06
2022-11-02T10:10:13.123Z,14.10
2022-11-02T10:12:50.754Z,14.05
2022-11-02T10:15:23.821Z,14.08
2022-11-02T10:17:56.538Z,14.01
2022-11-02T10:20:28.163Z,13.98
2022-11-02T10:23:03.642Z,14.02
2022-11-02T10:25:32.651Z,14.03
2022-11-02T10:28:06.304Z,14.05
2022-11-02T10:30:36.851Z,14.04
2022-11-02T10:33:14.262Z,14.08
2022-11-02T10:36:12.520Z,14.15
2022-11-02T10:38:46.644Z,14.15
2022-11-02T10:41:49.816Z,14.17
2022-11-02T10:44:53.372Z,14.14
2022-11-02T10:47:25.641Z,14.12
2022-11-02T10:50:30.455Z,14.09
2022-11-02T10:53:27.336Z,14.04
2022-11-02T10:56:01.086Z,14.02
2022-11-02T10:58:33.854Z,13.98
2022-11-02T11:01:08.972Z,13.96
2022-11-02T11:03:55.043Z,13.98
2022-11-02T11:06:24.794Z,13.99
2022-11-02T11:08:53.821Z,14.00
2022-11-02T11:11:24.064Z,13.97
2022-11-02T11:16:50.259Z,13.93
2022-11-02T11:19:40.934Z,13.90
2022-11-02T11:22:26.463Z,13.91
2022-11-02T11:24:55.179Z,13.91
2022-11-02T11:27:25.044Z,13.91
2022-11-02T11:29:56.090Z,13.90
2022-11-02T11:32:30.125Z,13.86
2022-11-02T11:35:03.900Z,13.85
2022-11-02T11:37:32.352Z,13.83
2022-11-02T11:40:16.127Z,13.85
2022-11-02T11:42:44.790Z,13.86
2022-11-02T11:45:21.719Z,13.87
2022-11-02T11:47:54.380Z,13.89
2022-11-02T11:50:26.085Z,13.87
2022-11-02T11:53:17.645Z,13.88
2022-11-02T11:55:52.577Z,13.89
2022-11-02T11:58:23.164Z,13.83
2022-11-02T12:01:09.398Z,13.76
2022-11-02T12:03:55.699Z,13.70
2022-11-02T12:06:36.379Z,13.67
2022-11-02T12:09:16.985Z,13.60
2022-11-02T12:11:58.716Z,13.55
2022-11-02T12:14:40.430Z,13.53
2022-11-02T12:17:34.245Z,13.54
2022-11-02T12:20:14.764Z,13.51
2022-11-02T12:22:55.654Z,13.52
2022-11-02T12:25:38.883Z,13.54
2022-11-02T12:28:21.882Z,13.57
2022-11-02T12:31:01.662Z,13.60
2022-11-02T12:33:45.641Z,13.63
2022-11-02T12:36:25.155Z,13.66
2022-11-02T12:39:02.319Z,13.67
2022-11-02T12:41:54.159Z,13.65
2022-11-02T12:44:44.389Z,13.63
2022-11-02T12:47:26.131Z,13.61
2022-11-02T12:50:08.604Z,13.60
2022-11-02T12:52:50.502Z,13.56
2022-11-02T12:55:25.303Z,13.53
2022-11-02T12:57:59.053Z,13.51
2022-11-02T13:00:29.482Z,13.52
2022-11-02T13:03:03.767Z,13.52
2022-11-02T13:05:38.993Z,13.52
2022-11-02T13:08:13.446Z,13.50
2022-11-02T13:10:52.380Z,13.49
2022-11-02T13:13:35.874Z,13.49
2022-11-02T13:16:05.484Z,13.50
2022-11-02T13:18:48.259Z,13.51
2022-11-02T13:21:20.010Z,13.50
2022-11-02T13:23:52.943Z,13.49
2022-11-02T13:26:30.179Z,13.47
2022-11-02T13:29:06.091Z,13.44
2022-11-02T13:31:41.556Z,13.41
2022-11-02T13:34:14.644Z,13.43
2022-11-02T13:36:43.875Z,13.40
2022-11-02T13:39:18.061Z,13.34
2022-11-02T13:42:09.880Z,13.30
2022-11-02T13:44:56.388Z,13.28
2022-11-02T13:47:43.049Z,13.27
2022-11-02T13:50:14.437Z,13.23
2022-11-02T13:52:47.884Z,13.21
2022-11-02T13:55:21.383Z,13.19
2022-11-02T13:57:54.546Z,13.17
2022-11-02T14:00:31.697Z,13.15
2022-11-02T14:03:06.743Z,13.09
2022-11-02T14:05:37.180Z,13.08
2022-11-02T14:08:09.695Z,13.04
2022-11-02T14:10:40.447Z,13.03
2022-11-02T14:13:14.254Z,13.00
2022-11-02T14:15:43.483Z,13.04
2022-11-02T14:18:31.744Z,13.10
2022-11-02T14:21:00.520Z,13.16
2022-11-02T14:23:39.617Z,13.19
2022-11-02T14:26:34.669Z,13.24
2022-11-02T14:29:30.025Z,13.30
2022-11-02T14:32:13.322Z,13.33
2022-11-02T14:35:01.042Z,13.36
2022-11-02T14:37:53.092Z,13.34
2022-11-02T14:40:30.668Z,13.31
2022-11-02T14:43:30.361Z,13.29
2022-11-02T14:46:16.920Z,13.23
2022-11-02T14:48:48.808Z,13.18
2022-11-02T14:51:22.054Z,13.14
2022-11-02T14:53:56.700Z,13.09
2022-11-02T14:56:25.141Z,13.03
2022-11-02T14:58:58.248Z,12.99
2022-11-02T15:01:27.766Z,12.94
2022-11-02T15:03:55.825Z,12.90
2022-11-02T15:06:26.601Z,12.88
2022-11-02T15:08:57.206Z,12.79
2022-11-02T15:11:44.030Z,12.72
2022-11-02T15:14:34.617Z,12.64
2022-11-02T15:17:04.705Z,12.56
2022-11-02T15:19:41.586Z,12.51
2022-11-02T15:22:38.120Z,12.45
2022-11-02T15:25:13.125Z,12.37
2022-11-02T15:27:47.255Z,12.33
2022-11-02T15:30:17.842Z,12.27
2022-11-02T15:32:51.365Z,12.21
2022-11-02T15:35:22.555Z,12.18
2022-11-02T15:38:15.788Z,12.13
2022-11-02T15:40:49.865Z,12.05
2022-11-02T15:43:46.321Z,11.99
2022-11-02T15:46:31.474Z,11.91
2022-11-02T15:49:12.522Z,11.85
2022-11-02T15:51:48.387Z,11.80
2022-11-02T15:54:30.041Z,11.71
2022-11-02T15:57:14.970Z,11.65
2022-11-02T16:00:09.316Z,11.54
2022-11-02T16:02:39.854Z,11.46
2022-11-02T16:05:20.857Z,11.40
2022-11-02T16:08:09.913Z,11.35
2022-11-02T16:10:38.070Z,11.26
2022-11-02T16:13:17.234Z,11.21
2022-11-02T16:15:46.359Z,11.15
2022-11-02T16:18:25.171Z,11.08
2022-11-02T16:20:57.292Z,11.04
2022-11-02T16:23:27.556Z,10.99
2022-11-02T16:26:13.448Z,10.95
2022-11-02T16:28:41.500Z,10.90
2022-11-02T16:31:19.419Z,10.87
2022-11-02T16:33:50.465Z,10.85
2022-11-02T16:36:22.798Z,10.78
2022-11-02T16:38:58.991Z,10.74
2022-11-02T16:41:29.022Z,10.69
2022-11-02T16:43:58.947Z,10.68
2022-11-02T16:46:32.692Z,10.63
2022-11-02T16:49:20.067Z,10.60
2022-11-02T16:51:55.617Z,10.58
2022-11-02T16:54:41.896Z,10.55
2022-11-02T16:57:17.035Z,10.50
2022-11-02T16:59:51.617Z,10.46
2022-11-02T17:02:20.839Z,10.41
2022-11-02T17:07:26.813Z,10.36
2022-11-02T17:09:57.701Z,10.34
2022-11-02T17:12:46.474Z,10.30
2022-11-02T17:15:19.742Z,10.30
2022-11-02T17:17:48.246Z,10.24
2022-11-02T17:20:24.323Z,10.22
2022-11-02T17:22:59.450Z,10.17
2022-11-02T17:25:32.625Z,10.13
2022-11-02T17:28:06.224Z,10.10
2022-11-02T17:30:45.634Z,10.06
2022-11-02T17:33:30.704Z,10.05
2022-11-02T17:36:06.035Z,10.03
2022-11-02T17:38:36.616Z,10.01
2022-11-02T17:41:24.891Z,9.97
2022-11-02T17:43:52.215Z,9.94
2022-11-02T17:46:21.190Z,9.92
2022-11-02T17:48:49.202Z,9.88
2022-11-02T17:51:17.307Z,9.86
2022-11-02T17:53:46.921Z,9.83
2022-11-02T17:56:15.416Z,9.82
2022-11-02T17:58:43.480Z,9.81
2022-11-02T18:01:13.228Z,9.79
2022-11-02T18:03:41.373Z,9.76
2022-11-02T18:06:09.528Z,9.76
2022-11-02T18:09:03.321Z,9.72
2022-11-02T18:11:32.863Z,9.71
2022-11-02T18:14:00.989Z,9.68
2022-11-02T18:16:29.804Z,9.67
2022-11-02T18:18:57.867Z,9.64
2022-11-02T18:21:25.821Z,9.62
2022-11-02T18:23:53.818Z,9.59
2022-11-02T18:26:22.228Z,9.57
2022-11-02T18:28:53.054Z,9.55
2022-11-02T18:31:21.025Z,9.53
2022-11-02T18:33:52.391Z,9.51
2022-11-02T18:36:21.389Z,9.52
2022-11-02T18:38:49.536Z,9.47
2022-11-02T18:41:30.736Z,9.46
2022-11-02T18:44:05.546Z,9.45
2022-11-02T18:46:36.380Z,9.41
2022-11-02T18:49:04.586Z,9.40
2022-11-02T18:51:32.802Z,9.39
2022-11-02T18:54:02.736Z,9.37
2022-11-02T18:56:31.059Z,9.37
2022-11-02T18:59:00.612Z,9.37
2022-11-02T19:01:29.475Z,9.32
2022-11-02T19:03:58.908Z,9.33
2022-11-02T19:06:45.889Z,9.29
2022-11-02T19:09:23.146Z,9.25
2022-11-02T19:11:56.814Z,9.22
2022-11-02T19:14:26.438Z,9.19
2022-11-02T19:16:54.427Z,9.14
2022-11-02T19:19:23.283Z,9.10
2022-11-02T19:21:51.266Z,9.05
2022-11-02T19:24:21.090Z,9.02
2022-11-02T19:26:49.485Z,9.00
2022-11-02T19:29:17.980Z,8.97
2022-11-02T19:31:47.650Z,8.95
2022-11-02T19:34:15.736Z,8.85
2022-11-02T19:36:43.760Z,8.88
2022-11-02T19:39:11.991Z,8.85
2022-11-02T19:41:40.188Z,8.84
2022-11-02T19:44:08.710Z,8.83
2022-11-02T19:46:36.818Z,8.77
2022-11-02T19:49:10.366Z,8.76
2022-11-02T19:51:38.368Z,8.75
2022-11-02T19:54:06.852Z,8.73
2022-11-02T19:56:36.720Z,8.70
2022-11-02T19:59:05.917Z,8.67
2022-11-02T20:01:35.492Z,8.64
2022-11-02T20:04:04.105Z,8.62
2022-11-02T20:06:35.868Z,8.60
2022-11-02T20:09:05.571Z,8.56
2022-11-02T20:11:33.861Z,8.52
2022-11-02T20:14:05.076Z,8.50
2022-11-02T20:16:33.077Z,8.47
2022-11-02T20:19:01.046Z,8.47
2022-11-02T20:21:34.532Z,8.45
2022-11-02T20:24:09.608Z,8.43
2022-11-02T20:26:40.940Z,8.40
2022-11-02T20:29:12.260Z,8.36
2022-11-02T20:31:44.443Z,8.36
2022-11-02T20:34:14.118Z,8.35
2022-11-02T20:36:42.056Z,8.33
2022-11-02T20:39:12.308Z,8.32
2022-11-02T20:41:40.302Z,8.32
2022-11-02T20:44:08.333Z,8.34
2022-11-02T20:46:41.093Z,8.35
2022-11-02T20:51:58.599Z,8.41
2022-11-02T20:54:29.963Z,8.41
2022-11-02T20:56:58.207Z,8.40
2022-11-02T20:59:26.857Z,8.39
2022-11-02T21:01:54.989Z,8.39
2022-11-02T21:04:24.757Z,8.39
2022-11-02T21:06:52.771Z,8.37
2022-11-02T21:09:20.958Z,8.37
2022-11-02T21:12:07.775Z,8.34
2022-11-02T21:14:35.808Z,8.33
2022-11-02T21:17:05.676Z,8.32
2022-11-02T21:19:34.080Z,8.31
2022-11-02T21:22:09.620Z,8.32
2022-11-02T21:24:37.648Z,8.34
2022-11-02T21:27:08.072Z,8.34
2022-11-02T21:29:36.163Z,8.33
2022-11-02T21:32:04.240Z,8.33
2022-11-02T21:34:32.158Z,8.35
2022-11-02T21:37:03.661Z,8.34
2022-11-02T21:39:31.717Z,8.36
2022-11-02T21:41:59.970Z,8.37
2022-11-02T21:44:29.389Z,8.37
2022-11-02T21:46:57.391Z,8.36
2022-11-02T21:49:25.380Z,8.36
2022-11-02T21:51:53.339Z,8.34
2022-11-02T21:54:21.333Z,8.33
2022-11-02T21:56:50.431Z,8.30
2022-11-02T21:59:18.477Z,8.28
2022-11-02T22:01:49.287Z,8.24
2022-11-02T22:04:21.473Z,8.23
2022-11-02T22:06:49.932Z,8.21
2022-11-02T22:09:17.907Z,8.18
2022-11-02T22:11:46.090Z,8.17
2022-11-02T22:14:15.029Z,8.17
2022-11-02T22:16:44.374Z,8.16
2022-11-02T22:19:15.479Z,8.18
2022-11-02T22:21:46.135Z,8.19
2022-11-02T22:24:14.276Z,8.21
2022-11-02T22:26:42.527Z,8.22
2022-11-02T22:29:11.714Z,8.24
2022-11-02T22:31:41.756Z,8.23
2022-11-02T22:34:11.623Z,8.22
2022-11-02T22:36:43.671Z,8.22
2022-11-02T22:39:17.101Z,8.21
2022-11-02T22:41:46.170Z,8.21
2022-11-02T22:44:16.417Z,8.20
2022-11-02T22:46:46.992Z,8.17
2022-11-02T22:49:17.465Z,8.16
2022-11-02T22:51:48.610Z,8.14
2022-11-02T22:54:19.087Z,8.11
2022-11-02T22:56:49.018Z,8.11
2022-11-02T22:59:17.689Z,8.09
2022-11-02T23:01:45.811Z,8.06
2022-11-02T23:04:14.365Z,8.04
2022-11-02T23:06:42.483Z,8.02
2022-11-02T23:09:13.643Z,8.00
2022-11-02T23:11:41.647Z,8.00
2022-11-02T23:14:12.149Z,7.99
2022-11-02T23:16:42.286Z,7.99
2022-11-02T23:19:27.165Z,8.02
2022-11-02T23:22:15.134Z,8.07
2022-11-02T23:25:04.054Z,8.12
2022-11-02T23:27:33.148Z,8.19
2022-11-02T23:30:20.142Z,8.24
2022-11-02T23:32:48.087Z,8.25
2022-11-02T23:35:33.504Z,8.26
2022-11-02T23:38:07.878Z,8.26
2022-11-02T23:40:37.647Z,8.23
2022-11-02T23:43:06.437Z,8.22
2022-11-02T23:45:34.563Z,8.23
2022-11-02T23:48:07.223Z,8.25
2022-11-02T23:50:53.516Z,8.27
2022-11-02T23:53:41.184Z,8.28
2022-11-02T23:56:34.833Z,8.31
2022-11-02T23:59:12.394Z,8.35
